»·PEaware :: N5268J KSMX-KBFL

N5268J :: KSMX-KBFL

FLIGHT INFORMATION

Flight Status: Arrived
Operator: Privately registered:
United States
More flights under this callsign
Pilot: John P. (31881)
Aircraft: BEECH AIRCRAFT BONANZA
(BE36)
More flights by this aircraft type
Origin: KSMX Santa Maria Pub/Capt Hancock
United States
Destination: KBFL Meadows
United States
More flights between these airports :: More routes between these airports
Route: SMX FLW BFL
File this flight plan on PilotEdge
Remarks:
Altitude:
(Current/Filed)
5,500ft
Speed:
(Current/Filed)
167kts
Departed: 16-Oct-20 08:18 PM
Arrived: 16-Oct-20 08:54 PM
Distance/Time
Traveled:
6875nm/0:35
Distance/Time
To Go:
Arrived

Flight Plot

Page will automatically refresh every two minutes.

Flight plan parsing failed; only flown route is shown


Map Options




Map Legend


Flown Route
Filed Route
Departure Airport
Arrival Airport
Navaid (VOR, NDB)
Fix

Horizontal Profiles

Position Reports

Time Latitude Longitude Heading Altitude Ground
Speed
16-Oct-20 19:35 0.000408 0.013975 0 3ft 0kts
16-Oct-20 19:36 0.000408 0.013975 0 3ft 0kts
16-Oct-20 19:37 0.000408 0.013975 0 3ft 0kts
16-Oct-20 19:38 0.000408 0.013975 0 3ft 0kts
16-Oct-20 19:39 0.000408 0.013975 0 3ft 0kts
16-Oct-20 19:40 0.000408 0.013975 0 3ft 0kts
16-Oct-20 19:41 0.000408 0.013975 0 3ft 0kts
16-Oct-20 19:42 0.000408 0.013975 0 3ft 0kts
16-Oct-20 19:43 0.000408 0.013975 0 3ft 0kts
16-Oct-20 19:44 0.000408 0.013975 0 3ft 0kts
16-Oct-20 19:45 0.000408 0.013975 0 3ft 0kts
16-Oct-20 19:46 0.000408 0.013975 0 3ft 0kts
16-Oct-20 19:47 34.896436 -120.445406 41 228ft 0kts
16-Oct-20 19:48 34.896436 -120.445406 41 257ft 0kts
16-Oct-20 19:49 34.896436 -120.445406 41 257ft 0kts
16-Oct-20 19:50 34.896436 -120.445406 41 257ft 0kts
16-Oct-20 19:51 34.896436 -120.445406 41 257ft 0kts
16-Oct-20 19:52 34.896437 -120.445404 40 257ft 0kts
16-Oct-20 19:53 34.896437 -120.445404 40 257ft 0kts
16-Oct-20 19:54 34.896437 -120.445404 40 257ft 0kts
16-Oct-20 19:55 34.896437 -120.445404 40 257ft 0kts
16-Oct-20 19:56 34.896437 -120.445404 40 257ft 0kts
16-Oct-20 19:57 34.896437 -120.445404 40 257ft 0kts
16-Oct-20 19:58 34.896437 -120.445404 40 257ft 0kts
16-Oct-20 19:59 34.896438 -120.445404 40 257ft 0kts
16-Oct-20 20:00 34.896438 -120.445404 40 257ft 0kts
16-Oct-20 20:01 34.896438 -120.445404 40 257ft 0kts
16-Oct-20 20:02 34.896438 -120.445404 40 257ft 0kts
16-Oct-20 20:03 34.896437 -120.445404 40 257ft 0kts
16-Oct-20 20:04 34.896438 -120.445404 40 257ft 0kts
16-Oct-20 20:05 34.896438 -120.445404 40 257ft 0kts
16-Oct-20 20:06 34.896438 -120.445404 40 257ft 0kts
16-Oct-20 20:07 34.896438 -120.445404 40 257ft 0kts
16-Oct-20 20:08 34.896438 -120.445404 40 257ft 0kts
16-Oct-20 20:09 34.896438 -120.445404 40 257ft 0kts
16-Oct-20 20:10 34.896438 -120.445404 40 257ft 0kts
16-Oct-20 20:11 34.896437 -120.445404 40 257ft 0kts
16-Oct-20 20:12 34.896437 -120.445404 40 257ft 0kts
16-Oct-20 20:13 34.896438 -120.445404 40 257ft 0kts
16-Oct-20 20:14 34.896343 -120.445593 195 257ft 1kts
16-Oct-20 20:15 34.893261 -120.445889 240 264ft 0kts
16-Oct-20 20:16 34.893160 -120.446103 241 264ft 18kts
16-Oct-20 20:17 34.911832 -120.463961 359 708ft 111kts
16-Oct-20 20:18 34.911647 -120.435259 104 1981ft 104kts
16-Oct-20 20:19 34.918633 -120.401253 69 3080ft 104kts
16-Oct-20 20:20 34.929561 -120.368002 68 4058ft 106kts
16-Oct-20 20:21 34.940701 -120.334366 68 4945ft 108kts
16-Oct-20 20:22 34.951978 -120.299875 68 5740ft 111kts
16-Oct-20 20:23 34.963558 -120.264462 68 6496ft 113kts
16-Oct-20 20:24 34.975327 -120.228465 68 7193ft 114kts
16-Oct-20 20:25 34.988309 -120.188634 68 7529ft 144kts
16-Oct-20 20:26 35.004231 -120.139799 68 7543ft 160kts
16-Oct-20 20:27 35.020724 -120.089095 68 7550ft 160kts
16-Oct-20 20:28 35.037003 -120.038953 68 7552ft 158kts
16-Oct-20 20:29 35.053147 -119.989119 68 7555ft 158kts
16-Oct-20 20:30 35.069309 -119.939220 68 7557ft 159kts
16-Oct-20 20:31 35.085592 -119.888775 68 7559ft 159kts
16-Oct-20 20:32 35.103965 -119.839645 62 7561ft 159kts
16-Oct-20 20:33 35.124587 -119.791575 63 7560ft 159kts
16-Oct-20 20:34 35.144982 -119.743599 63 7562ft 159kts
16-Oct-20 20:35 35.165403 -119.695518 63 7564ft 159kts
16-Oct-20 20:36 35.185889 -119.647171 63 7563ft 159kts
16-Oct-20 20:37 35.206294 -119.598981 63 7562ft 159kts
16-Oct-20 20:38 35.226679 -119.550719 63 7553ft 160kts
16-Oct-20 20:40 35.247157 -119.502212 63 7552ft 160kts
16-Oct-20 20:41 35.267582 -119.453768 63 7551ft 160kts
16-Oct-20 20:42 35.288026 -119.405161 63 7549ft 160kts
16-Oct-20 20:43 35.308461 -119.356518 63 7548ft 160kts
16-Oct-20 20:44 35.328821 -119.307976 63 7262ft 161kts
16-Oct-20 20:45 35.349043 -119.259747 64 6257ft 155kts
16-Oct-20 20:46 35.368476 -119.213295 64 5079ft 152kts
16-Oct-20 20:47 35.387440 -119.167928 63 3784ft 151kts
16-Oct-20 20:48 35.404595 -119.127276 63 3547ft 124kts
16-Oct-20 20:49 35.419748 -119.090814 81 3047ft 132kts
16-Oct-20 20:50 35.399693 -119.060523 142 2198ft 102kts
16-Oct-20 20:51 35.379501 -119.038947 88 2147ft 110kts
16-Oct-20 20:52 35.405010 -119.025184 336 1826ft 112kts
16-Oct-20 20:53 35.427832 -119.049038 315 665ft 102kts
16-Oct-20 20:54 35.438278 -119.059801 79 494ft 10kts
16-Oct-20 20:55 35.437786 -119.056369 69 496ft 0kts
16-Oct-20 20:56 35.437786 -119.056369 69 496ft 0kts
16-Oct-20 20:57 0.000408 0.013975 359 3ft 0kts
16-Oct-20 20:57 0.000408 0.013975 359 3ft 0kts
16-Oct-20 20:59 0.000408 0.013975 359 3ft 0kts
16-Oct-20 20:59 0.000408 0.013975 359 3ft 0kts
16-Oct-20 21:01 0.000408 0.013975 359 3ft 0kts
16-Oct-20 21:01 0.000408 0.013975 359 3ft 0kts
16-Oct-20 21:03 0.000408 0.013975 359 3ft 0kts
16-Oct-20 21:03 0.000408 0.013975 359 3ft 0kts
16-Oct-20 21:04 0.000408 0.013975 359 3ft 0kts
16-Oct-20 21:05 0.000408 0.013975 359 3ft 0kts
16-Oct-20 21:06 0.000408 0.013975 359 3ft 0kts
16-Oct-20 21:07 0.000408 0.013975 359 3ft 0kts

Navigation Log

Ident Type
Flight plan parsing failed, navigation log unavailable